sensor_id;sensor_type;location;lat;lon;timestamp;pressure;altitude;pressure_sealevel;temperature;humidity
70229;BME280;57617;51.988;5.854;2023-06-14T00:01:34;101024.56;;;24.04;30.61
70229;BME280;57617;51.988;5.854;2023-06-14T00:04:00;101028.31;;;23.99;30.37
70229;BME280;57617;51.988;5.854;2023-06-14T00:06:26;101023.94;;;23.98;30.56
70229;BME280;57617;51.988;5.854;2023-06-14T00:08:52;101019.31;;;23.94;30.77
70229;BME280;57617;51.988;5.854;2023-06-14T00:11:17;101023.09;;;23.89;30.93
70229;BME280;57617;51.988;5.854;2023-06-14T00:13:42;101022.41;;;23.84;30.67
70229;BME280;57617;51.988;5.854;2023-06-14T00:16:08;101024.66;;;23.82;30.82
70229;BME280;57617;51.988;5.854;2023-06-14T00:18:33;101031.06;;;23.82;31.14
70229;BME280;57617;51.988;5.854;2023-06-14T00:20:59;101025.19;;;23.84;31.12
70229;BME280;57617;51.988;5.854;2023-06-14T00:23:24;101030.22;;;23.82;31.18
70229;BME280;57617;51.988;5.854;2023-06-14T00:25:50;101027.44;;;23.82;31.12
70229;BME280;57617;51.988;5.854;2023-06-14T00:28:15;101019.13;;;23.82;31.12
70229;BME280;57617;51.988;5.854;2023-06-14T00:30:41;101026.97;;;23.80;31.08
70229;BME280;57617;51.988;5.854;2023-06-14T00:33:06;101026.28;;;23.74;30.96
70229;BME280;57617;51.988;5.854;2023-06-14T00:35:31;101025.81;;;23.72;31.15
70229;BME280;57617;51.988;5.854;2023-06-14T00:37:57;101029.72;;;23.71;31.36
70229;BME280;57617;51.988;5.854;2023-06-14T00:40:22;101032.28;;;23.68;31.51
70229;BME280;57617;51.988;5.854;2023-06-14T00:45:13;101028.03;;;23.53;31.59
70229;BME280;57617;51.988;5.854;2023-06-14T00:47:40;101023.75;;;23.47;31.74
70229;BME280;57617;51.988;5.854;2023-06-14T00:50:07;101024.22;;;23.41;31.73
70229;BME280;57617;51.988;5.854;2023-06-14T00:52:33;101040.09;;;23.49;31.97
70229;BME280;57617;51.988;5.854;2023-06-14T00:54:59;101030.09;;;23.48;32.18
70229;BME280;57617;51.988;5.854;2023-06-14T00:57:26;101034.03;;;23.47;32.08
70229;BME280;57617;51.988;5.854;2023-06-14T00:59:52;101033.84;;;23.43;32.03
70229;BME280;57617;51.988;5.854;2023-06-14T01:02:17;101031.41;;;23.42;31.90
70229;BME280;57617;51.988;5.854;2023-06-14T01:04:45;101030.91;;;23.40;32.05
70229;BME280;57617;51.988;5.854;2023-06-14T01:07:36;101040.38;;;23.39;32.64
70229;BME280;57617;51.988;5.854;2023-06-14T01:10:27;101039.19;;;23.31;32.48
70229;BME280;57617;51.988;5.854;2023-06-14T01:15:27;101039.16;;;23.23;32.11
70229;BME280;57617;51.988;5.854;2023-06-14T01:17:54;101044.72;;;23.23;32.10
70229;BME280;57617;51.988;5.854;2023-06-14T01:20:28;101031.03;;;23.26;32.62
70229;BME280;57617;51.988;5.854;2023-06-14T01:22:54;101032.78;;;23.22;32.30
70229;BME280;57617;51.988;5.854;2023-06-14T01:25:21;101032.06;;;23.17;32.28
70229;BME280;57617;51.988;5.854;2023-06-14T01:27:53;101038.75;;;23.16;32.65
70229;BME280;57617;51.988;5.854;2023-06-14T01:30:20;101034.66;;;23.13;32.43
70229;BME280;57617;51.988;5.854;2023-06-14T01:32:46;101041.97;;;23.09;32.63
70229;BME280;57617;51.988;5.854;2023-06-14T01:35:12;101040.34;;;23.08;32.40
70229;BME280;57617;51.988;5.854;2023-06-14T01:37:38;101041.66;;;23.11;32.43
70229;BME280;57617;51.988;5.854;2023-06-14T01:40:04;101034.50;;;23.10;32.47
70229;BME280;57617;51.988;5.854;2023-06-14T01:42:34;101043.44;;;23.07;32.55
70229;BME280;57617;51.988;5.854;2023-06-14T01:45:02;101033.47;;;23.06;32.50
70229;BME280;57617;51.988;5.854;2023-06-14T01:47:27;101044.06;;;23.04;32.36
70229;BME280;57617;51.988;5.854;2023-06-14T01:49:53;101039.69;;;23.03;32.59
70229;BME280;57617;51.988;5.854;2023-06-14T01:52:18;101032.94;;;22.95;32.71
70229;BME280;57617;51.988;5.854;2023-06-14T01:54:44;101031.75;;;22.88;32.87
70229;BME280;57617;51.988;5.854;2023-06-14T01:57:09;101030.94;;;22.87;32.88
70229;BME280;57617;51.988;5.854;2023-06-14T01:59:35;101031.25;;;22.86;32.91
70229;BME280;57617;51.988;5.854;2023-06-14T02:02:02;101026.19;;;22.79;32.98
70229;BME280;57617;51.988;5.854;2023-06-14T02:04:28;101037.44;;;22.83;33.02
70229;BME280;57617;51.988;5.854;2023-06-14T02:06:53;101028.28;;;22.82;33.00
70229;BME280;57617;51.988;5.854;2023-06-14T02:09:19;101022.56;;;22.79;33.06
70229;BME280;57617;51.988;5.854;2023-06-14T02:11:44;101024.84;;;22.77;33.12
70229;BME280;57617;51.988;5.854;2023-06-14T02:14:10;101041.91;;;22.70;33.20
70229;BME280;57617;51.988;5.854;2023-06-14T02:16:37;101024.28;;;22.66;33.36
70229;BME280;57617;51.988;5.854;2023-06-14T02:19:04;101029.63;;;22.63;33.22
70229;BME280;57617;51.988;5.854;2023-06-14T02:21:29;101031.09;;;22.60;33.44
70229;BME280;57617;51.988;5.854;2023-06-14T02:23:54;101029.44;;;22.59;33.49
70229;BME280;57617;51.988;5.854;2023-06-14T02:26:20;101022.91;;;22.55;33.38
70229;BME280;57617;51.988;5.854;2023-06-14T02:28:45;101022.72;;;22.52;33.77
70229;BME280;57617;51.988;5.854;2023-06-14T02:31:10;101025.97;;;22.54;33.92
70229;BME280;57617;51.988;5.854;2023-06-14T02:33:36;101033.28;;;22.50;33.85
70229;BME280;57617;51.988;5.854;2023-06-14T02:36:01;101023.97;;;22.46;33.80
70229;BME280;57617;51.988;5.854;2023-06-14T02:38:28;101032.38;;;22.41;34.12
70229;BME280;57617;51.988;5.854;2023-06-14T02:40:53;101030.84;;;22.35;33.85
70229;BME280;57617;51.988;5.854;2023-06-14T02:43:19;101035.03;;;22.32;34.18
70229;BME280;57617;51.988;5.854;2023-06-14T02:45:44;101036.19;;;22.31;34.16
70229;BME280;57617;51.988;5.854;2023-06-14T02:48:10;101032.91;;;22.29;34.08
70229;BME280;57617;51.988;5.854;2023-06-14T02:50:36;101030.97;;;22.30;34.27
70229;BME280;57617;51.988;5.854;2023-06-14T02:53:01;101029.31;;;22.29;34.26
70229;BME280;57617;51.988;5.854;2023-06-14T02:55:28;101030.28;;;22.24;34.32
70229;BME280;57617;51.988;5.854;2023-06-14T02:57:53;101036.72;;;22.20;34.47
70229;BME280;57617;51.988;5.854;2023-06-14T03:00:19;101045.66;;;22.17;34.43
70229;BME280;57617;51.988;5.854;2023-06-14T03:02:44;101046.63;;;22.12;35.06
70229;BME280;57617;51.988;5.854;2023-06-14T03:05:10;101047.72;;;22.11;34.70
70229;BME280;57617;51.988;5.854;2023-06-14T03:07:36;101054.00;;;22.03;34.79
70229;BME280;57617;51.988;5.854;2023-06-14T03:10:07;101050.22;;;21.99;34.80
70229;BME280;57617;51.988;5.854;2023-06-14T03:12:33;101047.44;;;21.99;34.86
70229;BME280;57617;51.988;5.854;2023-06-14T03:14:58;101059.97;;;21.97;34.86
70229;BME280;57617;51.988;5.854;2023-06-14T03:17:27;101052.25;;;21.94;34.97
70229;BME280;57617;51.988;5.854;2023-06-14T03:19:55;101047.19;;;21.87;34.93
70229;BME280;57617;51.988;5.854;2023-06-14T03:22:20;101057.31;;;21.92;35.09
70229;BME280;57617;51.988;5.854;2023-06-14T03:24:47;101059.88;;;21.88;35.18
70229;BME280;57617;51.988;5.854;2023-06-14T03:27:12;101053.41;;;21.79;35.31
70229;BME280;57617;51.988;5.854;2023-06-14T03:29:39;101062.84;;;21.78;35.42
70229;BME280;57617;51.988;5.854;2023-06-14T03:32:05;101050.25;;;21.72;35.50
70229;BME280;57617;51.988;5.854;2023-06-14T03:34:30;101076.69;;;21.78;35.45
70229;BME280;57617;51.988;5.854;2023-06-14T03:36:56;101074.13;;;21.82;35.70
70229;BME280;57617;51.988;5.854;2023-06-14T03:39:21;101050.88;;;21.69;35.54
70229;BME280;57617;51.988;5.854;2023-06-14T03:41:46;101072.47;;;21.81;35.49
70229;BME280;57617;51.988;5.854;2023-06-14T03:44:15;101072.28;;;21.77;35.68
70229;BME280;57617;51.988;5.854;2023-06-14T03:46:40;101074.22;;;21.77;35.60
70229;BME280;57617;51.988;5.854;2023-06-14T03:49:06;101079.34;;;21.70;35.81
70229;BME280;57617;51.988;5.854;2023-06-14T03:51:31;101083.44;;;21.72;35.73
70229;BME280;57617;51.988;5.854;2023-06-14T03:53:56;101078.72;;;21.73;35.76
70229;BME280;57617;51.988;5.854;2023-06-14T03:56:22;101073.81;;;21.70;36.04
70229;BME280;57617;51.988;5.854;2023-06-14T03:58:47;101090.81;;;21.77;35.91
70229;BME280;57617;51.988;5.854;2023-06-14T04:01:12;101086.91;;;21.78;35.78
70229;BME280;57617;51.988;5.854;2023-06-14T04:03:38;101083.66;;;21.76;35.78
70229;BME280;57617;51.988;5.854;2023-06-14T04:06:05;101090.31;;;21.75;35.83
70229;BME280;57617;51.988;5.854;2023-06-14T04:08:31;101092.06;;;21.71;35.98
70229;BME280;57617;51.988;5.854;2023-06-14T04:10:56;101057.06;;;21.48;35.96
70229;BME280;57617;51.988;5.854;2023-06-14T04:13:22;101092.34;;;21.69;35.98
70229;BME280;57617;51.988;5.854;2023-06-14T04:15:47;101093.97;;;21.70;36.07
70229;BME280;57617;51.988;5.854;2023-06-14T04:18:12;101104.25;;;21.70;36.26
70229;BME280;57617;51.988;5.854;2023-06-14T04:20:38;101104.81;;;21.67;36.29
70229;BME280;57617;51.988;5.854;2023-06-14T04:23:17;101117.25;;;21.69;36.47
70229;BME280;57617;51.988;5.854;2023-06-14T04:25:46;101115.31;;;21.70;36.24
70229;BME280;57617;51.988;5.854;2023-06-14T04:28:13;101116.94;;;21.71;36.33
70229;BME280;57617;51.988;5.854;2023-06-14T04:30:41;101112.75;;;21.73;36.18
70229;BME280;57617;51.988;5.854;2023-06-14T04:33:06;101118.16;;;21.78;36.01
70229;BME280;57617;51.988;5.854;2023-06-14T04:35:32;101114.56;;;21.78;36.18
70229;BME280;57617;51.988;5.854;2023-06-14T04:37:58;101109.88;;;21.78;36.40
70229;BME280;57617;51.988;5.854;2023-06-14T04:40:24;101107.91;;;21.79;36.21
70229;BME280;57617;51.988;5.854;2023-06-14T04:42:49;101116.19;;;21.79;36.42
70229;BME280;57617;51.988;5.854;2023-06-14T04:45:16;101115.69;;;21.77;36.21
70229;BME280;57617;51.988;5.854;2023-06-14T04:47:42;101125.97;;;21.76;36.44
70229;BME280;57617;51.988;5.854;2023-06-14T04:50:08;101130.03;;;21.79;36.32
70229;BME280;57617;51.988;5.854;2023-06-14T04:52:35;101130.66;;;21.76;36.24
70229;BME280;57617;51.988;5.854;2023-06-14T04:55:00;101130.38;;;21.77;36.51
70229;BME280;57617;51.988;5.854;2023-06-14T04:57:27;101135.38;;;21.75;36.67
70229;BME280;57617;51.988;5.854;2023-06-14T04:59:52;101132.00;;;21.78;36.59
70229;BME280;57617;51.988;5.854;2023-06-14T05:02:23;101127.78;;;21.81;36.63
70229;BME280;57617;51.988;5.854;2023-06-14T05:04:49;101134.97;;;21.82;36.57
70229;BME280;57617;51.988;5.854;2023-06-14T05:07:15;101130.88;;;21.79;36.66
70229;BME280;57617;51.988;5.854;2023-06-14T05:09:40;101130.66;;;21.76;36.81
70229;BME280;57617;51.988;5.854;2023-06-14T05:12:06;101126.47;;;21.78;36.75
70229;BME280;57617;51.988;5.854;2023-06-14T05:14:35;101130.97;;;21.88;36.82
70229;BME280;57617;51.988;5.854;2023-06-14T05:17:00;101125.22;;;21.84;36.62
70229;BME280;57617;51.988;5.854;2023-06-14T05:19:25;101137.72;;;21.82;36.69
70229;BME280;57617;51.988;5.854;2023-06-14T05:21:51;101138.66;;;21.91;36.57
70229;BME280;57617;51.988;5.854;2023-06-14T05:24:18;101134.06;;;22.00;36.44
70229;BME280;57617;51.988;5.854;2023-06-14T05:26:43;101143.34;;;22.04;36.55
70229;BME280;57617;51.988;5.854;2023-06-14T05:29:08;101139.38;;;22.10;36.59
70229;BME280;57617;51.988;5.854;2023-06-14T05:31:34;101149.31;;;22.11;36.27
70229;BME280;57617;51.988;5.854;2023-06-14T05:33:59;101146.94;;;22.18;36.46
70229;BME280;57617;51.988;5.854;2023-06-14T05:36:25;101142.53;;;22.17;36.40
70229;BME280;57617;51.988;5.854;2023-06-14T05:38:51;101159.41;;;22.29;36.25
70229;BME280;57617;51.988;5.854;2023-06-14T05:41:16;101159.31;;;22.34;36.23
70229;BME280;57617;51.988;5.854;2023-06-14T05:43:41;101152.63;;;22.35;36.01
70229;BME280;57617;51.988;5.854;2023-06-14T05:46:07;101162.16;;;22.42;36.26
70229;BME280;57617;51.988;5.854;2023-06-14T05:48:32;101161.38;;;22.42;36.18
70229;BME280;57617;51.988;5.854;2023-06-14T05:50:58;101165.25;;;22.41;36.11
70229;BME280;57617;51.988;5.854;2023-06-14T05:53:23;101170.16;;;22.44;36.14
70229;BME280;57617;51.988;5.854;2023-06-14T05:55:50;101151.44;;;22.41;36.23
70229;BME280;57617;51.988;5.854;2023-06-14T05:58:18;101168.03;;;22.54;36.17
70229;BME280;57617;51.988;5.854;2023-06-14T06:00:43;101174.78;;;22.62;36.11
70229;BME280;57617;51.988;5.854;2023-06-14T06:03:09;101183.19;;;22.70;36.17
70229;BME280;57617;51.988;5.854;2023-06-14T06:05:36;101183.06;;;22.75;35.98
70229;BME280;57617;51.988;5.854;2023-06-14T06:08:01;101172.41;;;22.69;35.95
70229;BME280;57617;51.988;5.854;2023-06-14T06:10:27;101183.06;;;22.75;35.88
70229;BME280;57617;51.988;5.854;2023-06-14T06:12:52;101182.75;;;22.77;35.89
70229;BME280;57617;51.988;5.854;2023-06-14T06:15:19;101186.31;;;22.77;35.95
70229;BME280;57617;51.988;5.854;2023-06-14T06:17:45;101194.50;;;22.82;35.99
70229;BME280;57617;51.988;5.854;2023-06-14T06:20:11;101197.16;;;22.87;36.05
70229;BME280;57617;51.988;5.854;2023-06-14T06:22:37;101191.81;;;22.91;35.74
70229;BME280;57617;51.988;5.854;2023-06-14T06:25:02;101200.84;;;22.96;36.18
70229;BME280;57617;51.988;5.854;2023-06-14T06:27:28;101192.22;;;22.98;35.91
70229;BME280;57617;51.988;5.854;2023-06-14T06:29:53;101192.59;;;23.05;35.87
70229;BME280;57617;51.988;5.854;2023-06-14T06:32:18;101195.25;;;23.10;36.02
70229;BME280;57617;51.988;5.854;2023-06-14T06:34:44;101198.50;;;23.12;35.82
70229;BME280;57617;51.988;5.854;2023-06-14T06:37:10;101203.94;;;23.17;35.73
70229;BME280;57617;51.988;5.854;2023-06-14T06:39:35;101203.94;;;23.17;35.89
70229;BME280;57617;51.988;5.854;2023-06-14T06:42:00;101195.94;;;23.15;35.84
70229;BME280;57617;51.988;5.854;2023-06-14T06:44:26;101209.91;;;23.24;36.03
70229;BME280;57617;51.988;5.854;2023-06-14T06:46:51;101206.34;;;23.32;36.19
70229;BME280;57617;51.988;5.854;2023-06-14T06:49:16;101208.00;;;23.33;35.92
70229;BME280;57617;51.988;5.854;2023-06-14T06:51:42;101209.34;;;23.35;35.67
70229;BME280;57617;51.988;5.854;2023-06-14T06:54:10;101223.69;;;23.37;35.83
70229;BME280;57617;51.988;5.854;2023-06-14T06:56:36;101227.47;;;23.41;35.50
70229;BME280;57617;51.988;5.854;2023-06-14T06:59:01;101213.50;;;23.46;35.38
70229;BME280;57617;51.988;5.854;2023-06-14T07:01:27;101226.41;;;23.51;35.52
70229;BME280;57617;51.988;5.854;2023-06-14T07:03:54;101224.94;;;23.53;35.41
70229;BME280;57617;51.988;5.854;2023-06-14T07:06:19;101230.38;;;23.58;35.33
70229;BME280;57617;51.988;5.854;2023-06-14T07:08:45;101227.28;;;23.60;35.14
70229;BME280;57617;51.988;5.854;2023-06-14T07:11:11;101238.25;;;23.65;35.14
70229;BME280;57617;51.988;5.854;2023-06-14T07:13:36;101234.91;;;23.76;34.95
70229;BME280;57617;51.988;5.854;2023-06-14T07:16:04;101242.75;;;23.83;34.87
70229;BME280;57617;51.988;5.854;2023-06-14T07:18:29;101237.41;;;23.86;34.84
70229;BME280;57617;51.988;5.854;2023-06-14T07:20:56;101238.41;;;23.90;34.77
70229;BME280;57617;51.988;5.854;2023-06-14T07:23:22;101240.25;;;23.95;34.74
70229;BME280;57617;51.988;5.854;2023-06-14T07:25:47;101237.66;;;23.98;34.77
70229;BME280;57617;51.988;5.854;2023-06-14T07:28:13;101241.06;;;24.04;34.84
70229;BME280;57617;51.988;5.854;2023-06-14T07:30:38;101241.91;;;24.04;34.73
70229;BME280;57617;51.988;5.854;2023-06-14T07:33:04;101247.63;;;24.08;34.79
70229;BME280;57617;51.988;5.854;2023-06-14T07:35:29;101258.91;;;24.11;34.35
70229;BME280;57617;51.988;5.854;2023-06-14T07:37:54;101254.69;;;24.14;34.29
70229;BME280;57617;51.988;5.854;2023-06-14T07:40:20;101252.75;;;24.14;34.21
70229;BME280;57617;51.988;5.854;2023-06-14T07:42:46;101251.59;;;24.15;34.42
70229;BME280;57617;51.988;5.854;2023-06-14T07:45:13;101257.97;;;24.16;34.21
70229;BME280;57617;51.988;5.854;2023-06-14T07:47:38;101254.53;;;24.19;33.97
70229;BME280;57617;51.988;5.854;2023-06-14T07:50:04;101242.63;;;24.18;34.15
70229;BME280;57617;51.988;5.854;2023-06-14T07:52:30;101255.41;;;24.28;34.02
70229;BME280;57617;51.988;5.854;2023-06-14T07:54:56;101255.56;;;24.31;33.79
70229;BME280;57617;51.988;5.854;2023-06-14T07:57:21;101260.66;;;24.38;33.54
70229;BME280;57617;51.988;5.854;2023-06-14T07:59:47;101257.44;;;24.44;33.56
70229;BME280;57617;51.988;5.854;2023-06-14T08:02:12;101265.63;;;24.49;33.25
70229;BME280;57617;51.988;5.854;2023-06-14T08:04:37;101259.41;;;24.52;33.01
70229;BME280;57617;51.988;5.854;2023-06-14T08:07:03;101257.94;;;24.55;33.47
70229;BME280;57617;51.988;5.854;2023-06-14T08:09:28;101246.19;;;24.58;33.57
70229;BME280;57617;51.988;5.854;2023-06-14T08:11:55;101257.53;;;24.70;33.32
70229;BME280;57617;51.988;5.854;2023-06-14T08:14:20;101251.81;;;24.75;33.15
70229;BME280;57617;51.988;5.854;2023-06-14T08:16:46;101252.97;;;24.82;32.87
70229;BME280;57617;51.988;5.854;2023-06-14T08:19:11;101244.47;;;24.79;32.61
70229;BME280;57617;51.988;5.854;2023-06-14T08:21:36;101258.88;;;24.89;32.12
70229;BME280;57617;51.988;5.854;2023-06-14T08:24:02;101254.63;;;24.92;32.07
70229;BME280;57617;51.988;5.854;2023-06-14T08:26:28;101257.41;;;24.92;32.14
70229;BME280;57617;51.988;5.854;2023-06-14T08:28:55;101251.69;;;24.97;31.62
70229;BME280;57617;51.988;5.854;2023-06-14T08:31:21;101259.38;;;25.00;31.32
70229;BME280;57617;51.988;5.854;2023-06-14T08:33:46;101259.22;;;25.05;31.84
70229;BME280;57617;51.988;5.854;2023-06-14T08:36:12;101258.88;;;25.15;31.39
70229;BME280;57617;51.988;5.854;2023-06-14T08:38:38;101259.22;;;25.22;31.09
70229;BME280;57617;51.988;5.854;2023-06-14T08:41:05;101260.56;;;25.33;31.00
70229;BME280;57617;51.988;5.854;2023-06-14T08:43:32;101260.41;;;25.46;30.73
70229;BME280;57617;51.988;5.854;2023-06-14T08:46:03;101252.69;;;25.52;30.30
70229;BME280;57617;51.988;5.854;2023-06-14T08:48:29;101254.78;;;25.63;30.55
70229;BME280;57617;51.988;5.854;2023-06-14T08:50:59;101258.38;;;25.72;30.82
70229;BME280;57617;51.988;5.854;2023-06-14T08:53:37;101250.81;;;25.90;30.09
70229;BME280;57617;51.988;5.854;2023-06-14T08:56:08;101261.91;;;26.07;30.52
70229;BME280;57617;51.988;5.854;2023-06-14T08:58:42;101252.03;;;26.18;29.84
70229;BME280;57617;51.988;5.854;2023-06-14T09:01:10;101247.91;;;26.32;29.41
70229;BME280;57617;51.988;5.854;2023-06-14T09:03:39;101245.41;;;26.39;29.35
70229;BME280;57617;51.988;5.854;2023-06-14T09:06:06;101237.25;;;26.55;28.94
70229;BME280;57617;51.988;5.854;2023-06-14T09:08:34;101238.97;;;26.76;28.95
70229;BME280;57617;51.988;5.854;2023-06-14T09:11:01;101256.28;;;26.90;28.80
70229;BME280;57617;51.988;5.854;2023-06-14T09:13:27;101252.59;;;26.98;28.79
70229;BME280;57617;51.988;5.854;2023-06-14T09:15:52;101247.44;;;27.09;28.33
70229;BME280;57617;51.988;5.854;2023-06-14T09:18:18;101252.75;;;27.22;28.39
70229;BME280;57617;51.988;5.854;2023-06-14T09:20:45;101248.72;;;27.32;28.02
70229;BME280;57617;51.988;5.854;2023-06-14T09:23:12;101245.81;;;27.49;27.69
70229;BME280;57617;51.988;5.854;2023-06-14T09:25:45;101260.34;;;27.54;27.37
70229;BME280;57617;51.988;5.854;2023-06-14T09:28:11;101262.25;;;27.62;27.47
70229;BME280;57617;51.988;5.854;2023-06-14T09:30:37;101259.72;;;27.69;27.37
70229;BME280;57617;51.988;5.854;2023-06-14T09:33:03;101268.88;;;27.90;27.42
70229;BME280;57617;51.988;5.854;2023-06-14T09:35:31;101252.34;;;27.85;27.04
70229;BME280;57617;51.988;5.854;2023-06-14T09:37:56;101254.69;;;27.95;27.21
70229;BME280;57617;51.988;5.854;2023-06-14T09:40:21;101254.13;;;28.02;27.39
70229;BME280;57617;51.988;5.854;2023-06-14T09:42:47;101251.44;;;28.05;27.63
70229;BME280;57617;51.988;5.854;2023-06-14T09:45:13;101263.72;;;28.25;27.66
70229;BME280;57617;51.988;5.854;2023-06-14T09:47:39;101258.34;;;28.32;26.70
70229;BME280;57617;51.988;5.854;2023-06-14T09:50:05;101248.72;;;28.41;26.60
70229;BME280;57617;51.988;5.854;2023-06-14T09:52:31;101246.50;;;28.47;26.53
70229;BME280;57617;51.988;5.854;2023-06-14T09:54:59;101266.19;;;28.50;26.55
70229;BME280;57617;51.988;5.854;2023-06-14T09:57:25;101258.03;;;28.45;25.42
70229;BME280;57617;51.988;5.854;2023-06-14T09:59:58;101265.41;;;28.50;24.78
70229;BME280;57617;51.988;5.854;2023-06-14T10:02:28;101263.16;;;28.55;25.36
70229;BME280;57617;51.988;5.854;2023-06-14T10:05:08;101261.19;;;28.56;25.40
70229;BME280;57617;51.988;5.854;2023-06-14T10:07:42;101253.03;;;28.63;25.32
70229;BME280;57617;51.988;5.854;2023-06-14T10:10:09;101252.78;;;28.68;25.70
70229;BME280;57617;51.988;5.854;2023-06-14T10:12:35;101237.16;;;28.79;25.66
70229;BME280;57617;51.988;5.854;2023-06-14T10:15:01;101245.66;;;28.94;25.89
70229;BME280;57617;51.988;5.854;2023-06-14T10:20:16;101236.84;;;29.20;25.73
70229;BME280;57617;51.988;5.854;2023-06-14T10:22:52;101238.91;;;29.35;25.32
70229;BME280;57617;51.988;5.854;2023-06-14T10:25:28;101238.75;;;29.43;24.70
70229;BME280;57617;51.988;5.854;2023-06-14T10:28:02;101240.41;;;29.44;25.39
70229;BME280;57617;51.988;5.854;2023-06-14T10:30:28;101240.13;;;29.49;25.43
70229;BME280;57617;51.988;5.854;2023-06-14T10:33:08;101237.44;;;29.53;25.10
70229;BME280;57617;51.988;5.854;2023-06-14T10:35:35;101237.91;;;29.55;25.29
70229;BME280;57617;51.988;5.854;2023-06-14T10:38:08;101242.34;;;29.56;24.90
70229;BME280;57617;51.988;5.854;2023-06-14T10:40:34;101243.97;;;29.57;25.32
70229;BME280;57617;51.988;5.854;2023-06-14T10:43:00;101238.38;;;29.57;24.83
70229;BME280;57617;51.988;5.854;2023-06-14T10:45:25;101242.00;;;29.57;24.73
70229;BME280;57617;51.988;5.854;2023-06-14T10:47:50;101241.38;;;29.64;24.98
70229;BME280;57617;51.988;5.854;2023-06-14T10:50:27;101235.31;;;29.62;24.04
70229;BME280;57617;51.988;5.854;2023-06-14T10:52:53;101241.63;;;29.59;24.37
70229;BME280;57617;51.988;5.854;2023-06-14T10:55:18;101243.91;;;29.69;24.46
70229;BME280;57617;51.988;5.854;2023-06-14T10:57:55;101236.25;;;29.81;24.26
70229;BME280;57617;51.988;5.854;2023-06-14T11:00:24;101230.09;;;29.76;23.94
70229;BME280;57617;51.988;5.854;2023-06-14T11:05:57;101233.38;;;29.93;23.42
70229;BME280;57617;51.988;5.854;2023-06-14T11:11:00;101234.91;;;29.91;23.65
70229;BME280;57617;51.988;5.854;2023-06-14T11:13:30;101248.56;;;29.92;23.76
70229;BME280;57617;51.988;5.854;2023-06-14T11:15:56;101238.53;;;29.91;23.28
70229;BME280;57617;51.988;5.854;2023-06-14T11:18:22;101245.41;;;29.94;23.69
70229;BME280;57617;51.988;5.854;2023-06-14T11:20:50;101235.91;;;29.98;23.40
70229;BME280;57617;51.988;5.854;2023-06-14T11:23:15;101243.97;;;30.00;23.78
70229;BME280;57617;51.988;5.854;2023-06-14T11:25:41;101234.56;;;29.92;23.60
70229;BME280;57617;51.988;5.854;2023-06-14T11:28:06;101244.16;;;29.91;23.42
70229;BME280;57617;51.988;5.854;2023-06-14T11:30:32;101242.59;;;29.94;23.40
70229;BME280;57617;51.988;5.854;2023-06-14T11:32:57;101242.09;;;30.04;23.61
70229;BME280;57617;51.988;5.854;2023-06-14T11:35:23;101245.09;;;30.11;23.77
70229;BME280;57617;51.988;5.854;2023-06-14T11:37:52;101246.44;;;30.17;23.78
70229;BME280;57617;51.988;5.854;2023-06-14T11:40:17;101244.38;;;30.14;23.67
70229;BME280;57617;51.988;5.854;2023-06-14T11:42:42;101239.84;;;30.25;23.69
70229;BME280;57617;51.988;5.854;2023-06-14T11:45:09;101232.72;;;30.27;23.29
70229;BME280;57617;51.988;5.854;2023-06-14T11:47:35;101233.22;;;30.48;23.16
70229;BME280;57617;51.988;5.854;2023-06-14T11:50:02;101257.66;;;30.48;22.94
70229;BME280;57617;51.988;5.854;2023-06-14T11:52:28;101246.00;;;30.46;23.58
70229;BME280;57617;51.988;5.854;2023-06-14T11:54:53;101248.16;;;30.52;23.53
70229;BME280;57617;51.988;5.854;2023-06-14T11:57:19;101235.41;;;30.55;23.60
70229;BME280;57617;51.988;5.854;2023-06-14T11:59:45;101249.84;;;30.57;23.76
70229;BME280;57617;51.988;5.854;2023-06-14T12:02:18;101250.53;;;30.66;23.09
70229;BME280;57617;51.988;5.854;2023-06-14T12:04:46;101242.78;;;30.63;23.43
70229;BME280;57617;51.988;5.854;2023-06-14T12:07:13;101243.16;;;30.61;23.61
70229;BME280;57617;51.988;5.854;2023-06-14T12:12:16;101242.00;;;30.62;22.92
70229;BME280;57617;51.988;5.854;2023-06-14T12:14:41;101257.00;;;30.54;23.00
70229;BME280;57617;51.988;5.854;2023-06-14T12:17:07;101244.38;;;30.45;23.11
70229;BME280;57617;51.988;5.854;2023-06-14T12:19:33;101249.50;;;30.43;23.15
70229;BME280;57617;51.988;5.854;2023-06-14T12:22:06;101244.53;;;30.52;22.56
70229;BME280;57617;51.988;5.854;2023-06-14T12:24:31;101238.78;;;30.64;23.09
70229;BME280;57617;51.988;5.854;2023-06-14T12:26:57;101250.41;;;30.62;22.60
70229;BME280;57617;51.988;5.854;2023-06-14T12:29:25;101256.66;;;30.56;22.97
70229;BME280;57617;51.988;5.854;2023-06-14T12:31:50;101243.53;;;30.60;22.85
70229;BME280;57617;51.988;5.854;2023-06-14T12:34:16;101234.47;;;30.66;22.82
70229;BME280;57617;51.988;5.854;2023-06-14T12:36:41;101244.69;;;30.59;23.10
70229;BME280;57617;51.988;5.854;2023-06-14T12:39:09;101247.97;;;30.61;23.14
70229;BME280;57617;51.988;5.854;2023-06-14T12:41:35;101234.66;;;30.58;23.35
70229;BME280;57617;51.988;5.854;2023-06-14T12:44:01;101238.13;;;30.67;23.39
70229;BME280;57617;51.988;5.854;2023-06-14T12:46:30;101239.00;;;30.71;23.50
70229;BME280;57617;51.988;5.854;2023-06-14T12:48:56;101258.44;;;30.79;22.85
70229;BME280;57617;51.988;5.854;2023-06-14T12:51:21;101248.03;;;30.80;22.70
70229;BME280;57617;51.988;5.854;2023-06-14T12:53:47;101247.31;;;30.83;22.84
70229;BME280;57617;51.988;5.854;2023-06-14T12:56:14;101248.28;;;30.90;23.26
70229;BME280;57617;51.988;5.854;2023-06-14T12:58:41;101255.59;;;30.95;23.16
70229;BME280;57617;51.988;5.854;2023-06-14T13:01:06;101239.13;;;30.93;23.07
70229;BME280;57617;51.988;5.854;2023-06-14T13:03:32;101246.88;;;31.00;23.25